createdAt,value
2023-04-17T00:03:34.097Z,82.42
2023-04-17T00:08:35.630Z,82.45
2023-04-17T00:13:37.292Z,82.67
2023-04-17T00:18:38.768Z,82.72
2023-04-17T00:23:40.589Z,83.25
2023-04-17T00:28:42.068Z,83.84
2023-04-17T00:33:43.479Z,83.55
2023-04-17T00:38:44.980Z,84.08
2023-04-17T00:43:46.412Z,83.82
2023-04-17T00:48:48.685Z,84.13
2023-04-17T00:53:50.312Z,84.08
2023-04-17T00:58:51.894Z,84.03
2023-04-17T01:03:53.663Z,84.06
2023-04-17T01:08:55.716Z,84.32
2023-04-17T01:13:57.155Z,85.09
2023-04-17T01:18:58.625Z,85.12
2023-04-17T01:24:03.072Z,85.12
2023-04-17T01:29:04.536Z,84.97
2023-04-17T01:34:05.984Z,85.00
2023-04-17T01:39:07.527Z,84.75
2023-04-17T01:44:09.046Z,85.13
2023-04-17T01:49:11.658Z,85.27
2023-04-17T01:54:15.450Z,84.99
2023-04-17T01:59:17.094Z,85.12
2023-04-17T02:04:18.807Z,85.04
2023-04-17T02:09:20.361Z,85.13
2023-04-17T02:14:21.794Z,84.80
2023-04-17T02:19:23.602Z,84.60
2023-04-17T02:24:25.394Z,84.46
2023-04-17T02:29:26.860Z,84.60
2023-04-17T02:34:28.275Z,84.87
2023-04-17T02:39:31.201Z,84.78
2023-04-17T02:44:32.615Z,84.57
2023-04-17T02:49:34.052Z,84.54
2023-04-17T02:54:35.620Z,84.52
2023-04-17T02:59:37.078Z,84.80
2023-04-17T03:04:38.793Z,84.16
2023-04-17T03:09:40.211Z,84.34
2023-04-17T03:14:42.448Z,84.17
2023-04-17T03:19:43.863Z,84.12
2023-04-17T03:24:45.535Z,84.21
2023-04-17T03:29:46.954Z,83.89
2023-04-17T03:34:48.379Z,83.63
2023-04-17T03:39:49.810Z,84.01
2023-04-17T03:44:52.042Z,83.66
2023-04-17T03:49:53.469Z,83.77
2023-04-17T03:54:54.882Z,83.95
2023-04-17T03:59:56.294Z,83.78
2023-04-17T04:04:57.766Z,84.01
2023-04-17T04:09:59.199Z,83.25
2023-04-17T04:15:01.012Z,83.84
2023-04-17T04:20:02.474Z,83.32
2023-04-17T04:25:04.106Z,83.54
2023-04-17T04:30:06.606Z,83.52
2023-04-17T04:35:08.609Z,83.00
2023-04-17T04:40:10.955Z,83.28
2023-04-17T04:45:12.573Z,83.12
2023-04-17T04:50:13.997Z,82.78
2023-04-17T04:55:15.635Z,82.90
2023-04-17T05:00:18.113Z,82.49
2023-04-17T05:05:19.592Z,82.68
2023-04-17T05:10:21.682Z,82.56
2023-04-17T05:15:23.278Z,82.55
2023-04-17T05:20:28.400Z,82.62
2023-04-17T05:25:29.837Z,81.42
2023-04-17T05:30:31.294Z,82.15
2023-04-17T05:35:33.225Z,82.37
2023-04-17T05:40:34.868Z,81.60
2023-04-17T05:45:36.701Z,81.76
2023-04-17T05:50:38.241Z,81.66
2023-04-17T05:55:39.795Z,81.00
2023-04-17T06:00:42.239Z,79.50
2023-04-17T06:05:43.725Z,78.52
2023-04-17T06:10:46.025Z,77.96
2023-04-17T06:15:47.517Z,77.30
2023-04-17T06:20:48.976Z,75.86
2023-04-17T06:25:50.383Z,76.02
2023-04-17T06:30:51.934Z,76.12
2023-04-17T06:35:53.369Z,75.27
2023-04-17T06:40:54.821Z,74.94
2023-04-17T06:45:56.262Z,75.00
2023-04-17T06:50:58.048Z,75.02
2023-04-17T06:55:59.462Z,75.22
2023-04-17T07:01:00.942Z,74.66
2023-04-17T07:06:02.402Z,73.57
2023-04-17T07:11:03.932Z,72.31
2023-04-17T07:16:06.388Z,73.53
2023-04-17T07:21:08.042Z,72.59
2023-04-17T07:26:11.404Z,71.91
2023-04-17T07:31:12.865Z,70.28
2023-04-17T07:36:14.324Z,70.80
2023-04-17T07:41:15.832Z,70.09
2023-04-17T07:46:17.312Z,69.23
2023-04-17T07:51:18.800Z,68.65
2023-04-17T07:56:20.259Z,68.58
2023-04-17T08:01:21.705Z,68.20
2023-04-17T08:06:23.234Z,66.92
2023-04-17T08:11:24.716Z,68.20
2023-04-17T08:16:26.248Z,67.20
2023-04-17T08:21:27.807Z,67.57
2023-04-17T08:26:29.245Z,66.83
2023-04-17T08:31:31.398Z,65.86
2023-04-17T08:36:33.133Z,65.88
2023-04-17T08:41:42.950Z,65.42
2023-04-17T08:46:45.221Z,65.56
2023-04-17T08:51:47.219Z,67.10
2023-04-17T08:56:48.985Z,67.96
2023-04-17T09:02:01.925Z,68.15
2023-04-17T09:07:05.124Z,66.53
2023-04-17T09:12:13.017Z,64.27
2023-04-17T09:17:19.137Z,62.14
2023-04-17T09:22:22.443Z,63.38
2023-04-17T09:27:26.273Z,62.39
2023-04-17T09:32:28.463Z,61.46
2023-04-17T09:37:53.859Z,62.05
2023-04-17T09:42:56.578Z,62.80
2023-04-17T09:47:58.386Z,62.98
2023-04-17T09:53:00.579Z,63.48
2023-04-17T09:58:04.391Z,63.28
2023-04-17T10:03:07.545Z,63.94
2023-04-17T10:08:09.335Z,63.22
2023-04-17T10:13:12.740Z,64.20
2023-04-17T10:18:24.934Z,63.93
2023-04-17T10:23:31.974Z,64.04
2023-04-17T10:28:50.018Z,63.97
2023-04-17T10:33:54.149Z,64.18
2023-04-17T10:39:12.409Z,62.64
2023-04-17T10:44:13.984Z,61.89
2023-04-17T10:49:15.432Z,63.02
2023-04-17T10:54:17.079Z,63.20
2023-04-17T10:59:19.161Z,61.87
2023-04-17T11:04:34.084Z,62.07
2023-04-17T11:09:36.211Z,62.23
2023-04-17T11:14:40.857Z,61.17
2023-04-17T11:19:42.415Z,60.09
2023-04-17T11:24:44.334Z,60.58
2023-04-17T11:29:46.013Z,60.39
2023-04-17T11:34:47.494Z,60.21
2023-04-17T11:39:48.976Z,58.88
2023-04-17T11:44:50.501Z,59.87
2023-04-17T11:49:51.996Z,61.06
2023-04-17T11:54:58.100Z,60.64
2023-04-17T11:59:59.655Z,59.34
2023-04-17T12:05:14.938Z,59.11
2023-04-17T12:10:16.437Z,59.73
2023-04-17T12:15:17.906Z,61.19
2023-04-17T12:20:19.397Z,59.43
2023-04-17T12:25:20.911Z,59.71
2023-04-17T12:30:23.295Z,59.75
2023-04-17T12:35:24.752Z,61.19
2023-04-17T12:40:26.338Z,58.28
2023-04-17T12:45:28.196Z,58.32
2023-04-17T12:50:29.642Z,58.81
2023-04-17T12:55:32.249Z,58.67
2023-04-17T13:00:34.339Z,59.30
2023-04-17T13:05:36.023Z,57.95
2023-04-17T13:10:37.579Z,57.50
2023-04-17T13:15:39.358Z,57.97
2023-04-17T13:20:40.832Z,55.27
2023-04-17T13:25:42.414Z,55.60
2023-04-17T13:30:43.916Z,56.34
2023-04-17T13:35:45.525Z,55.78
2023-04-17T13:40:46.946Z,55.68
2023-04-17T13:45:49.715Z,54.73
2023-04-17T13:50:51.325Z,54.21
2023-04-17T13:55:52.792Z,54.50
2023-04-17T14:00:54.243Z,53.81
2023-04-17T14:05:56.625Z,52.60
2023-04-17T14:10:58.149Z,52.84
2023-04-17T14:15:59.674Z,52.61
2023-04-17T14:21:01.429Z,52.67
2023-04-17T14:26:03.353Z,52.68
2023-04-17T14:31:05.425Z,53.60
2023-04-17T14:36:07.163Z,54.68
2023-04-17T14:41:09.256Z,55.72
2023-04-17T14:46:11.036Z,57.75
2023-04-17T14:51:14.329Z,58.72
2023-04-17T14:56:16.091Z,60.84
2023-04-17T15:01:17.653Z,60.54
2023-04-17T15:06:19.983Z,59.60
2023-04-17T15:11:21.404Z,59.97
2023-04-17T15:16:22.888Z,60.41
2023-04-17T15:21:24.331Z,60.36
2023-04-17T15:26:27.261Z,59.85
2023-04-17T15:31:28.695Z,59.59
2023-04-17T15:36:31.634Z,58.14
2023-04-17T15:41:33.054Z,56.64
2023-04-17T15:46:34.754Z,57.01
2023-04-17T15:51:36.389Z,55.97
2023-04-17T15:56:38.772Z,57.48
2023-04-17T16:01:40.369Z,59.58
2023-04-17T16:06:41.836Z,59.72
2023-04-17T16:11:43.653Z,60.97
2023-04-17T16:16:45.054Z,61.64
2023-04-17T16:21:46.469Z,63.73
2023-04-17T16:26:57.195Z,64.39
2023-04-17T16:31:58.767Z,64.28
2023-04-17T16:37:00.256Z,64.05
2023-04-17T16:42:01.834Z,65.58
2023-04-17T16:52:08.048Z,66.94
2023-04-17T16:57:09.463Z,67.69
2023-04-17T17:02:10.965Z,68.39
2023-04-17T17:07:12.435Z,68.75
2023-04-17T17:12:13.875Z,68.10
2023-04-17T17:17:15.627Z,68.97
2023-04-17T17:22:17.060Z,68.01
2023-04-17T17:27:18.519Z,69.20
2023-04-17T17:32:20.048Z,70.04
2023-04-17T17:37:21.735Z,69.84
2023-04-17T17:42:23.330Z,69.84
2023-04-17T17:47:27.379Z,71.24
2023-04-17T17:52:28.942Z,72.12
2023-04-17T17:57:38.726Z,72.38
2023-04-17T18:02:49.855Z,72.75
2023-04-17T18:07:51.548Z,74.02
2023-04-17T18:12:53.085Z,74.21
2023-04-17T18:17:55.564Z,72.78
2023-04-17T18:22:57.610Z,73.33
2023-04-17T18:27:59.084Z,73.12
2023-04-17T18:33:00.730Z,73.63
2023-04-17T18:38:02.370Z,73.52
2023-04-17T18:43:05.712Z,73.33
2023-04-17T18:48:07.473Z,74.29
2023-04-17T18:53:08.925Z,74.43
2023-04-17T18:58:10.408Z,74.01
2023-04-17T19:03:11.879Z,74.74
2023-04-17T19:08:14.924Z,75.09
2023-04-17T19:13:16.396Z,75.44
2023-04-17T19:18:17.874Z,76.09
2023-04-17T19:23:19.302Z,76.59
2023-04-17T19:28:21.381Z,78.23
2023-04-17T19:33:22.992Z,78.68
2023-04-17T19:38:25.977Z,78.70
2023-04-17T19:43:27.402Z,81.07
2023-04-17T19:48:28.818Z,81.23
2023-04-17T19:53:40.881Z,80.97
2023-04-17T19:58:42.648Z,80.36
2023-04-17T20:03:45.342Z,81.82
2023-04-17T20:08:47.150Z,83.80
2023-04-17T20:13:48.588Z,84.59
2023-04-17T20:18:51.821Z,84.93
2023-04-17T20:23:55.032Z,83.33
2023-04-17T20:28:56.494Z,84.03
2023-04-17T20:33:57.902Z,85.15
2023-04-17T20:38:59.363Z,85.14
2023-04-17T20:44:01.812Z,85.91
2023-04-17T20:49:03.380Z,87.16
2023-04-17T20:54:04.845Z,88.34
2023-04-17T20:59:06.324Z,87.99
2023-04-17T21:04:09.817Z,88.84
2023-04-17T21:09:14.165Z,88.38
2023-04-17T21:14:16.022Z,88.56
2023-04-17T21:19:17.468Z,89.77
2023-04-17T21:24:19.899Z,88.67
2023-04-17T21:29:21.328Z,89.86
2023-04-17T21:34:25.863Z,90.82
2023-04-17T21:39:27.403Z,91.53
2023-04-17T21:44:28.823Z,90.17
2023-04-17T21:49:30.232Z,91.97
2023-04-17T21:54:32.961Z,92.79
2023-04-17T21:59:35.049Z,91.12
2023-04-17T22:04:36.610Z,92.05
2023-04-17T22:09:38.151Z,93.67
2023-04-17T22:14:39.835Z,93.37
2023-04-17T22:19:41.879Z,92.21
2023-04-17T22:25:39.641Z,92.95
2023-04-17T22:31:37.694Z,93.51
2023-04-17T22:37:35.273Z,92.96
2023-04-17T22:43:33.205Z,93.29
2023-04-17T22:49:30.962Z,93.55
2023-04-17T22:55:28.786Z,94.35
2023-04-17T23:01:26.571Z,93.78
2023-04-17T23:07:24.361Z,94.41
2023-04-17T23:12:25.782Z,94.50
2023-04-17T23:17:27.289Z,92.65
2023-04-17T23:22:28.748Z,93.90
2023-04-17T23:27:31.547Z,94.20
2023-04-17T23:32:33.305Z,95.15
2023-04-17T23:37:34.751Z,95.14
2023-04-17T23:42:36.168Z,95.92
2023-04-17T23:47:37.724Z,96.49
2023-04-17T23:52:39.206Z,94.70
2023-04-17T23:57:40.658Z,95.40
